Das Wetter fuer Meerbusch Buederich
Wetterdaten: aktuell Freitag, 05.08.2022 09:10
Datum Zeit Temp.Mast Feuchte Mast Sonnenstand Luftdruck Regen Wind Richtung Richtung Sonnenschein Taupunkt Windchill Windböen
05.08.2022 09:10 17,2 °C 89 % 0 cb 1009,0 hPa 0,0 mm 2,4 km/h N-NO 15 ° 0 min 15,4 °C 17,2 °C 2,4 km/h
05.08.2022 09:05 17,2 °C 89 % 0 cb 1008,0 hPa 0,0 mm 1,2 km/h O 80 ° 0 min 15,4 °C 17,2 °C 1,2 km/h
05.08.2022 09:00 17,2 °C 89 % 0 cb 1008,0 hPa 0,0 mm 1,2 km/h O-SO 120 ° 0 min 15,4 °C 17,2 °C 1,2 km/h
05.08.2022 08:55 17,2 °C 90 % 0 cb 1008,0 hPa 0,0 mm 3,0 km/h SW 225 ° 0 min 15,5 °C 17,2 °C 3,0 km/h
05.08.2022 08:50 17,3 °C 90 % 0 cb 1009,0 hPa 0,0 mm 0,6 km/h S 185 ° 0 min 15,6 °C 17,3 °C 0,6 km/h
05.08.2022 08:45 17,3 °C 90 % 0 cb 1009,0 hPa 0,0 mm 2,4 km/h N-NO 30 ° 0 min 15,6 °C 17,3 °C 2,4 km/h
05.08.2022 08:40 17,3 °C 90 % 0 cb 1009,0 hPa 0,0 mm 1,2 km/h W 270 ° 0 min 15,6 °C 17,3 °C 1,2 km/h
05.08.2022 08:35 17,4 °C 90 % 0 cb 1008,0 hPa 0,0 mm 2,4 km/h SO 130 ° 0 min 15,7 °C 17,4 °C 2,4 km/h
05.08.2022 08:30 17,4 °C 90 % 0 cb 1008,0 hPa 0,0 mm 7,9 km/h NW 325 ° 0 min 15,7 °C 17,4 °C 7,9 km/h
05.08.2022 08:25 17,5 °C 90 % 0 cb 1008,0 hPa 0,0 mm 3,6 km/h SW 220 ° 0 min 15,8 °C 17,5 °C 3,6 km/h
05.08.2022 08:20 17,7 °C 90 % 0 cb 1008,0 hPa 0,0 mm 4,8 km/h S 190 ° 0 min 16,0 °C 17,7 °C 4,8 km/h
05.08.2022 08:15 17,8 °C 90 % 0 cb 1008,0 hPa 0,0 mm 2,4 km/h SO 135 ° 0 min 16,1 °C 17,8 °C 2,4 km/h
05.08.2022 08:10 17,9 °C 90 % 0 cb 1008,0 hPa 0,0 mm 1,8 km/h W 260 ° 0 min 16,2 °C 17,9 °C 1,8 km/h
05.08.2022 08:05 17,9 °C 90 % 0 cb 1008,0 hPa 0,0 mm 1,2 km/h W 270 ° 0 min 16,2 °C 17,9 °C 1,2 km/h
05.08.2022 08:00 18,0 °C 90 % 0 cb 1008,0 hPa 0,0 mm 2,4 km/h S-SO 165 ° 0 min 16,3 °C 18,0 °C 2,4 km/h
05.08.2022 07:55 18,0 °C 90 % 0 cb 1008,0 hPa 0,0 mm 0,6 km/h N-NW 345 ° 0 min 16,3 °C 18,0 °C 0,6 km/h
05.08.2022 07:50 18,0 °C 90 % 0 cb 1008,0 hPa 0,0 mm 2,4 km/h SW 230 ° 0 min 16,3 °C 18,0 °C 2,4 km/h
05.08.2022 07:45 18,0 °C 90 % 0 cb 1008,0 hPa 0,0 mm 1,2 km/h O 90 ° 0 min 16,3 °C 18,0 °C 1,2 km/h
05.08.2022 07:40 18,0 °C 90 % 0 cb 1008,0 hPa 0,0 mm 0,6 km/h S 180 ° 0 min 16,3 °C 18,0 °C 0,6 km/h
05.08.2022 07:35 18,0 °C 90 % 0 cb 1008,0 hPa 0,0 mm 0,6 km/h W 275 ° 0 min 16,3 °C 18,0 °C 0,6 km/h
05.08.2022 07:32 18,0 °C 90 % 0 cb 1013,6 hPa 0,0 mm 0,0 km/h NW 325 ° 0 min 16,3 °C 18,0 °C 0,0 km/h
05.08.2022 07:27 18,0 °C 90 % 0 cb 1013,6 hPa 0,3 mm 0,0 km/h SO 140 ° 0 min 16,3 °C 18,0 °C 0,0 km/h
05.08.2022 07:22 18,0 °C 90 % 0 cb 1013,6 hPa 0,0 mm 0,0 km/h S-SW 205 ° 0 min 16,3 °C 18,0 °C 0,0 km/h
05.08.2022 07:17 18,0 °C 90 % 0 cb 1012,6 hPa 0,0 mm 0,0 km/h O-SO 115 ° 0 min 16,3 °C 18,0 °C 0,0 km/h
05.08.2022 07:12 18,0 °C 90 % 0 cb 1012,6 hPa 0,0 mm 1,2 km/h SW 220 ° 0 min 16,3 °C 18,0 °C 1,2 km/h
05.08.2022 07:07 18,0 °C 90 % 0 cb 1012,6 hPa 0,0 mm 0,6 km/h S-SW 200 ° 0 min 16,3 °C 18,0 °C 0,6 km/h
05.08.2022 07:02 17,9 °C 90 % 0 cb 1012,6 hPa 0,0 mm 0,0 km/h N-NO 30 ° 0 min 16,2 °C 17,9 °C 0,0 km/h
05.08.2022 06:57 17,9 °C 90 % 0 cb 1012,6 hPa 0,0 mm 0,6 km/h S 180 ° 0 min 16,2 °C 17,9 °C 0,6 km/h
05.08.2022 06:52 17,9 °C 90 % 0 cb 1012,6 hPa 0,0 mm 0,0 km/h O-SO 120 ° 0 min 16,2 °C 17,9 °C 0,0 km/h
05.08.2022 06:47 17,9 °C 90 % 0 cb 1012,6 hPa 0,0 mm 0,0 km/h NO 35 ° 0 min 16,2 °C 17,9 °C 0,0 km/h
05.08.2022 06:42 18,0 °C 90 % 0 cb 1012,6 hPa 0,3 mm 1,2 km/h NO 45 ° 0 min 16,3 °C 18,0 °C 1,2 km/h
05.08.2022 06:37 18,0 °C 90 % 0 cb 1012,6 hPa 0,0 mm 0,0 km/h O 90 ° 0 min 16,3 °C 18,0 °C 0,0 km/h
05.08.2022 06:32 18,0 °C 90 % 0 cb 1012,6 hPa 0,0 mm 3,6 km/h SW 235 ° 0 min 16,3 °C 18,0 °C 3,6 km/h
05.08.2022 06:27 18,1 °C 90 % 0 cb 1012,6 hPa 0,0 mm 1,8 km/h S-SO 160 ° 0 min 16,4 °C 18,1 °C 1,8 km/h
05.08.2022 06:22 18,1 °C 90 % 0 cb 1012,6 hPa 0,0 mm 1,8 km/h W-SW 255 ° 0 min 16,4 °C 18,1 °C 1,8 km/h
05.08.2022 06:17 18,1 °C 90 % 0 cb 1013,6 hPa 0,0 mm 0,0 km/h S-SW 210 ° 0 min 16,4 °C 18,1 °C 0,0 km/h
05.08.2022 06:12 18,1 °C 90 % 0 cb 1013,6 hPa 0,0 mm 1,8 km/h O-SO 105 ° 0 min 16,4 °C 18,1 °C 1,8 km/h
05.08.2022 06:07 18,1 °C 90 % 0 cb 1013,6 hPa 0,0 mm 0,0 km/h O-SO 115 ° 0 min 16,4 °C 18,1 °C 0,0 km/h
05.08.2022 06:02 18,0 °C 90 % 0 cb 1013,6 hPa 0,0 mm 6,1 km/h O-SO 120 ° 0 min 16,3 °C 18,0 °C 6,1 km/h
05.08.2022 05:57 18,1 °C 90 % 0 cb 1013,6 hPa 0,0 mm 1,2 km/h S 170 ° 0 min 16,4 °C 18,1 °C 1,2 km/h
05.08.2022 05:52 18,0 °C 90 % 0 cb 1013,6 hPa 0,0 mm 3,0 km/h O-NO 60 ° 0 min 16,3 °C 18,0 °C 3,0 km/h
05.08.2022 05:47 18,0 °C 90 % 0 cb 1013,6 hPa 0,0 mm 7,3 km/h SW 225 ° 0 min 16,3 °C 18,0 °C 7,3 km/h
05.08.2022 05:42 17,9 °C 90 % 0 cb 1013,6 hPa 0,0 mm 4,8 km/h S-SW 200 ° 0 min 16,2 °C 17,9 °C 4,8 km/h
05.08.2022 05:37 17,9 °C 90 % 0 cb 1013,6 hPa 0,0 mm 2,4 km/h W-SW 240 ° 0 min 16,2 °C 17,9 °C 2,4 km/h
05.08.2022 05:32 17,9 °C 90 % 0 cb 1012,6 hPa 0,0 mm 0,0 km/h SW 230 ° 0 min 16,2 °C 17,9 °C 0,0 km/h
05.08.2022 05:27 17,9 °C 89 % 0 cb 1012,6 hPa 0,0 mm 0,6 km/h W-SW 255 ° 0 min 16,1 °C 17,9 °C 0,6 km/h
05.08.2022 05:22 17,8 °C 89 % 0 cb 1012,6 hPa 0,0 mm 4,2 km/h N-NW 345 ° 0 min 16,0 °C 17,8 °C 4,2 km/h
05.08.2022 05:17 17,8 °C 89 % 0 cb 1012,6 hPa 0,0 mm 6,1 km/h NO 55 ° 0 min 16,0 °C 17,8 °C 6,1 km/h
05.08.2022 05:12 17,9 °C 89 % 0 cb 1012,6 hPa 0,0 mm 2,4 km/h N-NO 30 ° 0 min 16,1 °C 17,9 °C 2,4 km/h
05.08.2022 05:07 17,9 °C 88 % 0 cb 1012,6 hPa 0,0 mm 2,4 km/h N-NO 30 ° 0 min 15,9 °C 17,9 °C 2,4 km/h
05.08.2022 05:02 18,1 °C 88 % 0 cb 1013,6 hPa 0,0 mm 2,4 km/h W 260 ° 0 min 16,1 °C 18,1 °C 2,4 km/h
05.08.2022 04:57 18,1 °C 88 % 0 cb 1013,6 hPa 0,3 mm 1,2 km/h O-NO 75 ° 0 min 16,1 °C 18,1 °C 1,2 km/h
05.08.2022 04:52 18,2 °C 88 % 0 cb 1013,6 hPa 0,3 mm 0,0 km/h O-NO 65 ° 0 min 16,2 °C 18,2 °C 0,0 km/h
05.08.2022 04:47 18,2 °C 88 % 0 cb 1013,6 hPa 3,2 mm 0,0 km/h N-NW 335 ° 0 min 16,2 °C 18,2 °C 0,0 km/h
05.08.2022 04:42 18,2 °C 88 % 0 cb 1013,6 hPa 0,3 mm 1,2 km/h W 265 ° 0 min 16,2 °C 18,2 °C 1,2 km/h
05.08.2022 04:37 18,3 °C 87 % 0 cb 1013,6 hPa 0,0 mm 3,6 km/h S-SW 205 ° 0 min 16,1 °C 18,3 °C 3,6 km/h
05.08.2022 04:32 18,4 °C 87 % 0 cb 1013,6 hPa 0,3 mm 3,6 km/h W-SW 240 ° 0 min 16,2 °C 18,4 °C 3,6 km/h
05.08.2022 04:27 18,4 °C 87 % 0 cb 1013,6 hPa 0,3 mm 2,4 km/h O-SO 120 ° 0 min 16,2 °C 18,4 °C 2,4 km/h
05.08.2022 04:22 18,4 °C 86 % 0 cb 1013,6 hPa 0,3 mm 4,2 km/h S-SW 200 ° 0 min 16,0 °C 18,4 °C 4,2 km/h
05.08.2022 04:17 18,4 °C 86 % 0 cb 1013,6 hPa 0,3 mm 4,2 km/h NO 45 ° 0 min 16,0 °C 18,4 °C 4,2 km/h
05.08.2022 04:12 18,4 °C 86 % 0 cb 1013,6 hPa 0,0 mm 3,0 km/h SW 215 ° 0 min 16,0 °C 18,4 °C 3,0 km/h
05.08.2022 04:07 18,3 °C 86 % 0 cb 1013,6 hPa 0,0 mm 8,5 km/h SW 220 ° 0 min 15,9 °C 18,3 °C 8,5 km/h
05.08.2022 04:02 18,3 °C 86 % 0 cb 1013,6 hPa 0,0 mm 10,3 km/h S 185 ° 0 min 15,9 °C 18,3 °C 10,3 km/h
05.08.2022 03:57 18,3 °C 86 % 0 cb 1013,6 hPa 0,0 mm 5,4 km/h S-SW 200 ° 0 min 15,9 °C 18,3 °C 5,4 km/h
05.08.2022 03:52 18,4 °C 85 % 0 cb 1013,6 hPa 0,0 mm 4,2 km/h NW 310 ° 0 min 15,8 °C 18,4 °C 4,2 km/h
05.08.2022 03:47 18,4 °C 85 % 0 cb 1012,6 hPa 0,0 mm 0,6 km/h W-SW 245 ° 0 min 15,8 °C 18,4 °C 0,6 km/h
05.08.2022 03:42 18,4 °C 85 % 0 cb 1012,6 hPa 0,0 mm 1,8 km/h W-NW 295 ° 0 min 15,8 °C 18,4 °C 1,8 km/h
05.08.2022 03:37 18,5 °C 85 % 0 cb 1012,6 hPa 0,0 mm 3,0 km/h O-NO 60 ° 0 min 15,9 °C 18,5 °C 3,0 km/h
05.08.2022 03:32 18,5 °C 85 % 0 cb 1012,6 hPa 0,0 mm 1,2 km/h S 170 ° 0 min 15,9 °C 18,5 °C 1,2 km/h
05.08.2022 03:27 18,6 °C 85 % 0 cb 1012,6 hPa 0,0 mm 2,4 km/h SW 215 ° 0 min 16,0 °C 18,6 °C 2,4 km/h
05.08.2022 03:22 18,6 °C 85 % 0 cb 1012,6 hPa 0,0 mm 1,8 km/h N-NO 20 ° 0 min 16,0 °C 18,6 °C 1,8 km/h
05.08.2022 03:17 18,6 °C 84 % 0 cb 1012,6 hPa 0,0 mm 4,8 km/h SW 235 ° 0 min 15,8 °C 18,6 °C 4,8 km/h
05.08.2022 03:12 18,7 °C 84 % 0 cb 1012,6 hPa 0,0 mm 3,0 km/h W-SW 255 ° 0 min 15,9 °C 18,7 °C 3,0 km/h
05.08.2022 03:07 18,7 °C 84 % 0 cb 1012,6 hPa 0,0 mm 0,6 km/h S-SW 210 ° 0 min 15,9 °C 18,7 °C 0,6 km/h
05.08.2022 03:02 18,7 °C 84 % 0 cb 1012,6 hPa 0,0 mm 1,2 km/h W-SW 255 ° 0 min 15,9 °C 18,7 °C 1,2 km/h
05.08.2022 02:57 18,7 °C 84 % 0 cb 1012,6 hPa 0,0 mm 2,4 km/h W-NW 295 ° 0 min 15,9 °C 18,7 °C 2,4 km/h
05.08.2022 02:52 18,7 °C 84 % 0 cb 1012,6 hPa 0,0 mm 4,2 km/h O 95 ° 0 min 15,9 °C 18,7 °C 4,2 km/h
05.08.2022 02:47 18,7 °C 84 % 0 cb 1012,6 hPa 0,0 mm 3,6 km/h O-NO 60 ° 0 min 15,9 °C 18,7 °C 3,6 km/h
05.08.2022 02:42 18,8 °C 84 % 0 cb 1012,6 hPa 0,0 mm 1,8 km/h O 80 ° 0 min 16,0 °C 18,8 °C 1,8 km/h
05.08.2022 02:37 18,8 °C 83 % 0 cb 1012,6 hPa 0,0 mm 2,4 km/h N-NO 25 ° 0 min 15,8 °C 18,8 °C 2,4 km/h
05.08.2022 02:32 18,8 °C 83 % 0 cb 1013,6 hPa 0,0 mm 0,0 km/h S 175 ° 0 min 15,8 °C 18,8 °C 0,0 km/h
05.08.2022 02:27 18,8 °C 83 % 0 cb 1013,6 hPa 0,0 mm 0,6 km/h O-SO 115 ° 0 min 15,8 °C 18,8 °C 0,6 km/h
05.08.2022 02:22 18,8 °C 83 % 0 cb 1013,6 hPa 0,0 mm 1,2 km/h W-SW 255 ° 0 min 15,8 °C 18,8 °C 1,2 km/h
05.08.2022 02:17 18,8 °C 83 % 0 cb 1012,6 hPa 0,0 mm 0,0 km/h W 265 ° 0 min 15,8 °C 18,8 °C 0,0 km/h
05.08.2022 02:12 18,8 °C 83 % 0 cb 1012,6 hPa 0,0 mm 1,2 km/h S-SW 205 ° 0 min 15,8 °C 18,8 °C 1,2 km/h
05.08.2022 02:07 18,9 °C 83 % 0 cb 1012,6 hPa 0,0 mm 0,0 km/h W-NW 285 ° 0 min 15,9 °C 18,9 °C 0,0 km/h
05.08.2022 02:02 18,9 °C 82 % 0 cb 1012,6 hPa 0,0 mm 0,0 km/h W-NW 290 ° 0 min 15,8 °C 18,9 °C 0,0 km/h
05.08.2022 01:57 19,0 °C 82 % 0 cb 1012,5 hPa 0,0 mm 1,2 km/h SO 125 ° 0 min 15,9 °C 19,0 °C 1,2 km/h
05.08.2022 01:52 19,0 °C 82 % 0 cb 1012,5 hPa 0,0 mm 1,2 km/h N-NO 25 ° 0 min 15,9 °C 19,0 °C 1,2 km/h
05.08.2022 01:47 19,1 °C 82 % 0 cb 1012,5 hPa 0,0 mm 0,6 km/h SW 230 ° 0 min 16,0 °C 19,1 °C 0,6 km/h
05.08.2022 01:42 19,2 °C 82 % 0 cb 1012,5 hPa 0,0 mm 0,0 km/h O-SO 105 ° 0 min 16,0 °C 19,2 °C 0,0 km/h
05.08.2022 01:37 19,3 °C 81 % 0 cb 1012,5 hPa 0,0 mm 0,0 km/h O-NO 70 ° 0 min 16,0 °C 19,3 °C 0,0 km/h
05.08.2022 01:32 19,3 °C 81 % 0 cb 1012,5 hPa 0,0 mm 0,0 km/h O 80 ° 0 min 16,0 °C 19,3 °C 0,0 km/h
05.08.2022 01:27 19,4 °C 81 % 0 cb 1012,5 hPa 0,0 mm 2,4 km/h W-SW 245 ° 0 min 16,1 °C 19,4 °C 2,4 km/h
05.08.2022 01:22 19,3 °C 81 % 0 cb 1012,5 hPa 0,0 mm 3,0 km/h S-SW 205 ° 0 min 16,0 °C 19,3 °C 3,0 km/h
05.08.2022 01:17 19,4 °C 80 % 0 cb 1012,5 hPa 0,0 mm 4,8 km/h NO 35 ° 0 min 15,9 °C 19,4 °C 4,8 km/h
05.08.2022 01:12 19,5 °C 80 % 0 cb 1012,5 hPa 0,0 mm 10,9 km/h N-NO 30 ° 0 min 16,0 °C 19,5 °C 10,9 km/h
05.08.2022 01:07 19,5 °C 80 % 0 cb 1012,5 hPa 0,0 mm 3,6 km/h O 100 ° 0 min 16,0 °C 19,5 °C 3,6 km/h
05.08.2022 01:02 19,6 °C 80 % 0 cb 1012,5 hPa 0,0 mm 4,8 km/h N-NO 20 ° 0 min 16,1 °C 19,6 °C 4,8 km/h
05.08.2022 00:57 19,7 °C 79 % 0 cb 1012,5 hPa 0,0 mm 6,7 km/h NO 55 ° 0 min 16,0 °C 19,7 °C 6,7 km/h
05.08.2022 00:53 19,9 °C 79 % 0 cb 1012,5 hPa 0,0 mm 2,4 km/h N 5 ° 0 min 16,1 °C 19,9 °C 2,4 km/h
05.08.2022 00:48 20,0 °C 78 % 0 cb 1013,5 hPa 0,0 mm 2,4 km/h O-NO 65 ° 0 min 16,0 °C 20,0 °C 2,4 km/h
05.08.2022 00:43 20,7 °C 76 % 0 cb 1013,5 hPa 0,0 mm 1,2 km/h O 85 ° 0 min 16,3 °C 20,7 °C 1,2 km/h
05.08.2022 00:38 21,1 °C 75 % 0 cb 1013,5 hPa 0,0 mm 3,6 km/h S 190 ° 0 min 16,5 °C 21,1 °C 3,6 km/h
05.08.2022 00:33 21,8 °C 72 % 0 cb 1013,5 hPa 0,3 mm 1,8 km/h SO 145 ° 0 min 16,5 °C 21,8 °C 1,8 km/h
05.08.2022 00:28 22,3 °C 69 % 0 cb 1013,5 hPa 0,3 mm 3,0 km/h N-NW 340 ° 0 min 16,3 °C 22,3 °C 3,0 km/h
05.08.2022 00:23 22,8 °C 67 % 0 cb 1013,5 hPa 0,0 mm 1,8 km/h S-SO 155 ° 0 min 16,3 °C 22,8 °C 1,8 km/h
05.08.2022 00:18 22,8 °C 65 % 0 cb 1014,5 hPa 0,0 mm 6,7 km/h O 95 ° 0 min 15,9 °C 22,8 °C 6,7 km/h
05.08.2022 00:13 22,9 °C 65 % 0 cb 1014,5 hPa 0,0 mm 5,4 km/h S 175 ° 0 min 16,0 °C 22,9 °C 5,4 km/h
05.08.2022 00:08 23,0 °C 65 % 0 cb 1014,5 hPa 0,0 mm 5,4 km/h W 265 ° 0 min 16,1 °C 23,0 °C 5,4 km/h
05.08.2022 00:03 22,9 °C 65 % 0 cb 1014,5 hPa 0,0 mm 3,0 km/h S-SW 205 ° 0 min 16,0 °C 22,9 °C 3,0 km/h
04.08.2022 23:58 23,0 °C 64 % 0 cb 1014,5 hPa 0,0 mm 4,8 km/h W-NW 290 ° 0 min 15,8 °C 23,0 °C 4,8 km/h
04.08.2022 23:53 23,0 °C 64 % 0 cb 1014,5 hPa 0,0 mm 1,8 km/h SW 215 ° 0 min 15,8 °C 23,0 °C 1,8 km/h
04.08.2022 23:48 23,1 °C 64 % 0 cb 1013,5 hPa 0,0 mm 3,0 km/h S-SW 200 ° 0 min 15,9 °C 23,1 °C 3,0 km/h
04.08.2022 23:43 23,2 °C 64 % 0 cb 1013,5 hPa 0,0 mm 2,4 km/h N-NW 345 ° 0 min 16,0 °C 23,2 °C 2,4 km/h
04.08.2022 23:38 23,3 °C 64 % 0 cb 1013,5 hPa 0,0 mm 5,4 km/h NO 40 ° 0 min 16,1 °C 23,3 °C 5,4 km/h
04.08.2022 23:33 23,4 °C 64 % 0 cb 1014,5 hPa 0,0 mm 4,2 km/h S-SW 195 ° 0 min 16,2 °C 23,4 °C 4,2 km/h
04.08.2022 23:28 23,4 °C 64 % 0 cb 1014,5 hPa 0,0 mm 9,1 km/h N 5 ° 0 min 16,2 °C 23,4 °C 9,1 km/h
04.08.2022 23:23 23,5 °C 65 % 0 cb 1014,5 hPa 0,0 mm 6,1 km/h SW 230 ° 0 min 16,5 °C 23,5 °C 6,1 km/h
04.08.2022 23:18 23,6 °C 65 % 0 cb 1013,5 hPa 0,0 mm 9,1 km/h SW 220 ° 0 min 16,6 °C 23,6 °C 9,1 km/h
04.08.2022 23:13 23,7 °C 67 % 0 cb 1013,5 hPa 0,0 mm 4,2 km/h NO 35 ° 0 min 17,2 °C 23,7 °C 4,2 km/h
04.08.2022 23:08 23,9 °C 68 % 0 cb 1013,5 hPa 0,0 mm 6,1 km/h W 275 ° 0 min 17,6 °C 23,9 °C 6,1 km/h
04.08.2022 23:03 23,9 °C 69 % 0 cb 1013,5 hPa 0,0 mm 3,0 km/h S 180 ° 0 min 17,9 °C 23,9 °C 3,0 km/h
04.08.2022 22:58 24,0 °C 69 % 0 cb 1013,5 hPa 0,0 mm 3,6 km/h SW 220 ° 0 min 18,0 °C 24,0 °C 3,6 km/h
04.08.2022 22:53 24,1 °C 69 % 0 cb 1013,5 hPa 0,0 mm 2,4 km/h O-SO 115 ° 0 min 18,0 °C 24,1 °C 2,4 km/h
04.08.2022 22:48 24,1 °C 68 % 0 cb 1012,5 hPa 0,0 mm 2,4 km/h SW 220 ° 0 min 17,8 °C 24,1 °C 2,4 km/h
04.08.2022 22:43 24,1 °C 68 % 0 cb 1012,5 hPa 0,0 mm 2,4 km/h SW 225 ° 0 min 17,8 °C 24,1 °C 2,4 km/h
04.08.2022 22:38 24,1 °C 68 % 0 cb 1012,5 hPa 0,0 mm 1,8 km/h SW 225 ° 0 min 17,8 °C 24,1 °C 1,8 km/h
04.08.2022 22:33 24,1 °C 68 % 0 cb 1012,5 hPa 0,0 mm 0,0 km/h S 180 ° 0 min 17,8 °C 24,1 °C 0,0 km/h
04.08.2022 22:28 24,1 °C 68 % 0 cb 1012,5 hPa 0,0 mm 1,8 km/h SW 220 ° 0 min 17,8 °C 24,1 °C 1,8 km/h
04.08.2022 22:23 24,1 °C 68 % 0 cb 1012,5 hPa 0,0 mm 0,6 km/h S-SW 200 ° 0 min 17,8 °C 24,1 °C 0,6 km/h
04.08.2022 22:18 24,2 °C 67 % 0 cb 1012,5 hPa 0,0 mm 0,0 km/h S 190 ° 0 min 17,7 °C 24,2 °C 0,0 km/h
04.08.2022 22:13 24,2 °C 67 % 0 cb 1012,5 hPa 0,0 mm 0,0 km/h NO 50 ° 0 min 17,7 °C 24,2 °C 0,0 km/h
04.08.2022 22:08 24,5 °C 66 % 0 cb 1012,4 hPa 0,0 mm 0,0 km/h O 80 ° 0 min 17,7 °C 24,5 °C 0,0 km/h
04.08.2022 22:03 24,6 °C 66 % 0 cb 1012,4 hPa 0,0 mm 0,0 km/h NO 35 ° 0 min 17,8 °C 24,6 °C 0,0 km/h
04.08.2022 21:58 24,7 °C 66 % 0 cb 1012,4 hPa 0,0 mm 0,0 km/h O-NO 75 ° 0 min 17,9 °C 24,7 °C 0,0 km/h
04.08.2022 21:53 24,8 °C 65 % 0 cb 1012,4 hPa 0,0 mm 0,0 km/h W 275 ° 0 min 17,8 °C 24,8 °C 0,0 km/h
04.08.2022 21:48 24,9 °C 65 % 0 cb 1011,4 hPa 0,0 mm 1,8 km/h S-SW 200 ° 0 min 17,9 °C 24,9 °C 1,8 km/h
04.08.2022 21:43 25,0 °C 65 % 0 cb 1011,4 hPa 0,0 mm 1,8 km/h N-NW 335 ° 0 min 17,9 °C 25,0 °C 1,8 km/h
04.08.2022 21:38 25,1 °C 64 % 0 cb 1011,4 hPa 0,0 mm 0,0 km/h SW 235 ° 0 min 17,8 °C 25,1 °C 0,0 km/h
04.08.2022 21:33 25,2 °C 64 % 0 cb 1011,4 hPa 0,0 mm 1,2 km/h SW 230 ° 0 min 17,9 °C 25,2 °C 1,2 km/h
04.08.2022 21:30 25,3 °C 64 % 0 cb 1011,4 hPa 0,0 mm 2,4 km/h SW 235 ° 0 min 18,0 °C 25,3 °C 2,4 km/h
04.08.2022 21:25 25,4 °C 64 % 0 cb 1011,4 hPa 0,0 mm 1,8 km/h W 270 ° 0 min 18,1 °C 25,4 °C 1,8 km/h
04.08.2022 21:20 25,5 °C 64 % 0 cb 1011,4 hPa 0,0 mm 1,2 km/h S-SW 200 ° 0 min 18,2 °C 25,5 °C 1,2 km/h
04.08.2022 21:15 25,6 °C 64 % 0 cb 1011,4 hPa 0,0 mm 1,2 km/h W-NW 285 ° 0 min 18,3 °C 25,6 °C 1,2 km/h
04.08.2022 21:10 25,6 °C 64 % 0 cb 1011,4 hPa 0,0 mm 0,0 km/h W-SW 240 ° 0 min 18,3 °C 25,6 °C 0,0 km/h
04.08.2022 21:05 25,6 °C 63 % 0 cb 1011,4 hPa 0,0 mm 0,0 km/h S-SW 195 ° 0 min 18,0 °C 25,6 °C 0,0 km/h
04.08.2022 21:00 25,8 °C 63 % 0 cb 1011,4 hPa 0,0 mm 1,2 km/h NW 315 ° 0 min 18,2 °C 25,8 °C 1,2 km/h
04.08.2022 20:55 25,9 °C 63 % 0 cb 1011,4 hPa 0,0 mm 0,6 km/h W-NW 285 ° 0 min 18,3 °C 25,9 °C 0,6 km/h
04.08.2022 20:50 26,0 °C 63 % 0 cb 1011,4 hPa 0,0 mm 0,0 km/h S 170 ° 0 min 18,4 °C 26,0 °C 0,0 km/h
04.08.2022 20:45 26,1 °C 63 % 0 cb 1011,4 hPa 0,0 mm 0,0 km/h O 80 ° 0 min 18,5 °C 26,1 °C 0,0 km/h
04.08.2022 20:40 26,2 °C 62 % 0 cb 1011,4 hPa 0,0 mm 0,6 km/h N 0 ° 0 min 18,3 °C 26,2 °C 0,6 km/h
04.08.2022 20:35 26,2 °C 62 % 0 cb 1011,4 hPa 0,0 mm 1,2 km/h W-NW 285 ° 0 min 18,3 °C 26,2 °C 1,2 km/h
04.08.2022 20:30 26,4 °C 62 % 0 cb 1011,4 hPa 0,0 mm 2,4 km/h N 355 ° 0 min 18,5 °C 26,4 °C 2,4 km/h
04.08.2022 20:28 26,4 °C 62 % 0 cb 1011,4 hPa 0,0 mm 1,2 km/h N 5 ° 0 min 18,5 °C 26,4 °C 1,2 km/h
04.08.2022 20:23 26,6 °C 62 % 0 cb 1011,4 hPa 0,0 mm 0,6 km/h O-NO 75 ° 0 min 18,7 °C 26,6 °C 0,6 km/h
04.08.2022 20:18 26,7 °C 62 % 0 cb 1011,4 hPa 0,0 mm 0,6 km/h NO 35 ° 0 min 18,8 °C 26,7 °C 0,6 km/h
04.08.2022 20:13 26,8 °C 61 % 0 cb 1011,4 hPa 0,0 mm 0,6 km/h N 355 ° 0 min 18,6 °C 26,8 °C 0,6 km/h
04.08.2022 20:08 26,9 °C 61 % 0 cb 1011,4 hPa 0,0 mm 0,0 km/h S 175 ° 0 min 18,7 °C 26,9 °C 0,0 km/h
04.08.2022 20:03 27,0 °C 61 % 0 cb 1011,4 hPa 0,0 mm 2,4 km/h S-SW 210 ° 0 min 18,8 °C 27,0 °C 2,4 km/h
04.08.2022 19:58 27,2 °C 60 % 0 cb 1011,4 hPa 0,0 mm 2,4 km/h S-SW 195 ° 0 min 18,7 °C 27,2 °C 2,4 km/h
04.08.2022 19:53 27,3 °C 60 % 0 cb 1011,4 hPa 0,0 mm 1,2 km/h S-SW 200 ° 0 min 18,8 °C 27,3 °C 1,2 km/h
04.08.2022 19:48 27,4 °C 60 % 0 cb 1011,4 hPa 0,0 mm 3,6 km/h O-SO 110 ° 0 min 18,9 °C 27,4 °C 3,6 km/h
04.08.2022 19:43 27,6 °C 59 % 0 cb 1011,4 hPa 0,0 mm 2,4 km/h W-NW 300 ° 0 min 18,8 °C 27,6 °C 2,4 km/h
04.08.2022 19:38 27,7 °C 60 % 0 cb 1011,4 hPa 0,0 mm 2,4 km/h N-NO 20 ° 0 min 19,2 °C 27,7 °C 2,4 km/h
04.08.2022 19:33 27,9 °C 60 % 0 cb 1011,4 hPa 0,0 mm 1,8 km/h W 275 ° 0 min 19,4 °C 27,9 °C 1,8 km/h
04.08.2022 19:28 28,2 °C 60 % 0 cb 1011,4 hPa 0,0 mm 0,0 km/h O 95 ° 0 min 19,7 °C 28,2 °C 0,0 km/h
04.08.2022 19:23 28,3 °C 60 % 0 cb 1011,4 hPa 0,0 mm 1,2 km/h W-SW 245 ° 0 min 19,8 °C 28,3 °C 1,2 km/h
04.08.2022 19:18 28,6 °C 60 % 0 cb 1011,4 hPa 0,0 mm 1,2 km/h S-SW 205 ° 0 min 20,1 °C 28,6 °C 1,2 km/h
04.08.2022 19:13 28,8 °C 60 % 0 cb 1011,4 hPa 0,0 mm 1,2 km/h S-SO 160 ° 0 min 20,2 °C 28,8 °C 1,2 km/h
04.08.2022 19:08 29,2 °C 59 % 0 cb 1011,4 hPa 0,0 mm 0,6 km/h SO 135 ° 0 min 20,3 °C 29,2 °C 0,6 km/h
04.08.2022 19:03 29,3 °C 59 % 0 cb 1011,4 hPa 0,0 mm 0,6 km/h NO 40 ° 0 min 20,4 °C 29,3 °C 0,6 km/h
04.08.2022 18:58 29,3 °C 59 % 6 cb 1011,4 hPa 0,0 mm 1,8 km/h SO 140 ° 6 min 20,4 °C 29,3 °C 1,8 km/h
04.08.2022 18:53 29,6 °C 58 % 2 cb 1011,3 hPa 0,0 mm 1,8 km/h O-NO 65 ° 2 min 20,4 °C 29,6 °C 1,8 km/h
04.08.2022 18:48 29,8 °C 58 % 4 cb 1011,3 hPa 0,0 mm 4,8 km/h W-NW 285 ° 4 min 20,6 °C 29,8 °C 4,8 km/h
04.08.2022 18:43 30,2 °C 57 % 6 cb 1011,3 hPa 0,0 mm 3,6 km/h NO 45 ° 6 min 20,7 °C 30,2 °C 3,6 km/h
04.08.2022 18:38 29,8 °C 59 % 5 cb 1011,3 hPa 0,0 mm 0,0 km/h NW 325 ° 5 min 20,9 °C 29,8 °C 0,0 km/h
04.08.2022 18:33 28,9 °C 59 % 5 cb 1011,4 hPa 0,0 mm 4,8 km/h NW 315 ° 5 min 20,1 °C 28,9 °C 4,8 km/h
04.08.2022 18:28 28,8 °C 59 % 3 cb 1011,4 hPa 0,0 mm 4,8 km/h S-SW 195 ° 3 min 20,0 °C 28,8 °C 4,8 km/h
04.08.2022 18:23 28,9 °C 58 % 1 cb 1011,4 hPa 0,0 mm 9,7 km/h W-SW 255 ° 1 min 19,8 °C 28,9 °C 9,7 km/h
04.08.2022 18:18 29,2 °C 58 % 5 cb 1011,4 hPa 0,0 mm 6,1 km/h SW 235 ° 5 min 20,1 °C 29,2 °C 6,1 km/h
04.08.2022 18:13 28,6 °C 60 % 6 cb 1011,4 hPa 0,0 mm 3,6 km/h O-NO 60 ° 6 min 20,1 °C 28,6 °C 3,6 km/h
04.08.2022 18:08 28,3 °C 60 % 0 cb 1011,4 hPa 0,0 mm 3,6 km/h S-SO 165 ° 0 min 19,8 °C 28,3 °C 3,6 km/h
04.08.2022 18:03 28,1 °C 59 % 1 cb 1011,4 hPa 0,0 mm 5,4 km/h SW 235 ° 1 min 19,3 °C 28,1 °C 5,4 km/h
04.08.2022 17:58 28,2 °C 58 % 0 cb 1011,4 hPa 0,0 mm 10,3 km/h SW 230 ° 0 min 19,1 °C 28,2 °C 10,3 km/h
04.08.2022 17:53 28,2 °C 58 % 0 cb 1011,4 hPa 0,0 mm 2,4 km/h O-SO 120 ° 0 min 19,1 °C 28,2 °C 2,4 km/h
04.08.2022 17:48 28,3 °C 58 % 0 cb 1011,4 hPa 0,0 mm 3,6 km/h S-SW 210 ° 0 min 19,2 °C 28,3 °C 3,6 km/h
04.08.2022 17:43 28,4 °C 59 % 0 cb 1011,4 hPa 0,0 mm 1,8 km/h O-SO 105 ° 0 min 19,6 °C 28,4 °C 1,8 km/h
04.08.2022 17:38 28,5 °C 59 % 0 cb 1011,4 hPa 0,0 mm 0,0 km/h N-NW 340 ° 0 min 19,7 °C 28,5 °C 0,0 km/h
04.08.2022 17:33 28,5 °C 58 % 0 cb 1012,4 hPa 0,0 mm 3,6 km/h S-SW 210 ° 0 min 19,4 °C 28,5 °C 3,6 km/h
04.08.2022 17:28 28,5 °C 58 % 0 cb 1012,4 hPa 0,0 mm 2,4 km/h N 0 ° 0 min 19,4 °C 28,5 °C 2,4 km/h
04.08.2022 17:23 28,5 °C 58 % 0 cb 1012,4 hPa 0,0 mm 3,6 km/h O 95 ° 0 min 19,4 °C 28,5 °C 3,6 km/h
04.08.2022 17:18 28,5 °C 58 % 0 cb 1011,4 hPa 0,0 mm 2,4 km/h W-NW 285 ° 0 min 19,4 °C 28,5 °C 2,4 km/h
04.08.2022 17:13 28,4 °C 57 % 0 cb 1011,4 hPa 0,0 mm 4,8 km/h N-NW 330 ° 0 min 19,0 °C 28,4 °C 4,8 km/h
04.08.2022 17:08 28,5 °C 57 % 0 cb 1011,4 hPa 0,0 mm 5,4 km/h S 175 ° 0 min 19,1 °C 28,5 °C 5,4 km/h
04.08.2022 17:03 28,4 °C 56 % 0 cb 1011,4 hPa 0,0 mm 5,4 km/h W-SW 240 ° 0 min 18,8 °C 28,4 °C 5,4 km/h
04.08.2022 16:58 28,6 °C 57 % 0 cb 1011,4 hPa 0,0 mm 5,4 km/h W 275 ° 0 min 19,2 °C 28,6 °C 5,4 km/h
04.08.2022 16:53 28,7 °C 56 % 0 cb 1011,4 hPa 0,0 mm 6,7 km/h S-SW 210 ° 0 min 19,0 °C 28,7 °C 6,7 km/h
04.08.2022 16:48 28,8 °C 56 % 0 cb 1011,4 hPa 0,0 mm 4,2 km/h S-SW 205 ° 0 min 19,1 °C 28,8 °C 4,2 km/h
04.08.2022 16:43 29,0 °C 55 % 0 cb 1011,4 hPa 0,0 mm 4,8 km/h SO 125 ° 0 min 19,0 °C 29,0 °C 4,8 km/h
04.08.2022 16:38 29,2 °C 55 % 0 cb 1011,4 hPa 0,0 mm 4,2 km/h O-NO 70 ° 0 min 19,2 °C 29,2 °C 4,2 km/h
04.08.2022 16:33 29,4 °C 55 % 0 cb 1011,4 hPa 0,0 mm 3,6 km/h W 260 ° 0 min 19,4 °C 29,4 °C 3,6 km/h
04.08.2022 16:28 29,7 °C 54 % 0 cb 1011,3 hPa 0,0 mm 3,0 km/h NO 50 ° 0 min 19,4 °C 29,7 °C 3,0 km/h
04.08.2022 16:23 29,8 °C 54 % 0 cb 1011,3 hPa 0,0 mm 0,6 km/h SO 145 ° 0 min 19,5 °C 29,8 °C 0,6 km/h
04.08.2022 16:18 29,8 °C 54 % 0 cb 1011,3 hPa 0,0 mm 6,1 km/h SW 220 ° 0 min 19,5 °C 29,8 °C 6,1 km/h
04.08.2022 16:13 30,2 °C 53 % 0 cb 1011,3 hPa 0,0 mm 4,8 km/h W-SW 245 ° 0 min 19,5 °C 30,2 °C 4,8 km/h
04.08.2022 16:08 30,6 °C 54 % 0 cb 1011,3 hPa 0,0 mm 3,6 km/h NO 40 ° 0 min 20,2 °C 30,6 °C 3,6 km/h
04.08.2022 16:03 30,8 °C 54 % 0 cb 1011,3 hPa 0,0 mm 0,6 km/h W-SW 255 ° 0 min 20,4 °C 30,8 °C 0,6 km/h
04.08.2022 15:58 31,1 °C 54 % 0 cb 1011,3 hPa 0,0 mm 0,6 km/h NO 55 ° 0 min 20,7 °C 31,1 °C 0,6 km/h
04.08.2022 15:53 31,1 °C 53 % 0 cb 1011,3 hPa 0,0 mm 1,8 km/h O 100 ° 0 min 20,4 °C 31,1 °C 1,8 km/h
04.08.2022 15:48 31,2 °C 53 % 0 cb 1011,3 hPa 0,0 mm 1,2 km/h SO 140 ° 0 min 20,5 °C 31,2 °C 1,2 km/h
04.08.2022 15:43 31,1 °C 52 % 4 cb 1011,3 hPa 0,0 mm 1,2 km/h O 100 ° 4 min 20,1 °C 31,1 °C 1,2 km/h
04.08.2022 15:38 31,2 °C 52 % 5 cb 1011,3 hPa 0,0 mm 2,4 km/h O 85 ° 5 min 20,1 °C 31,2 °C 2,4 km/h
04.08.2022 15:33 31,2 °C 52 % 1 cb 1012,3 hPa 0,0 mm 2,4 km/h W-NW 285 ° 1 min 20,1 °C 31,2 °C 2,4 km/h
04.08.2022 15:28 31,5 °C 51 % 0 cb 1012,3 hPa 0,0 mm 0,0 km/h S-SW 195 ° 0 min 20,1 °C 31,5 °C 0,0 km/h
04.08.2022 15:23 31,5 °C 51 % 0 cb 1012,3 hPa 0,0 mm 1,2 km/h W-SW 245 ° 0 min 20,1 °C 31,5 °C 1,2 km/h
04.08.2022 15:18 31,6 °C 50 % 0 cb 1011,3 hPa 0,0 mm 2,4 km/h S 185 ° 0 min 19,9 °C 31,6 °C 2,4 km/h
04.08.2022 15:13 31,6 °C 48 % 5 cb 1011,3 hPa 0,0 mm 4,2 km/h S 185 ° 5 min 19,2 °C 31,6 °C 4,2 km/h
04.08.2022 15:08 31,5 °C 49 % 5 cb 1011,3 hPa 0,0 mm 7,3 km/h S-SW 210 ° 5 min 19,5 °C 31,5 °C 7,3 km/h
04.08.2022 15:03 31,2 °C 49 % 5 cb 1011,3 hPa 0,0 mm 4,8 km/h SW 230 ° 5 min 19,2 °C 31,2 °C 4,8 km/h
04.08.2022 14:58 31,1 °C 50 % 5 cb 1011,3 hPa 0,0 mm 5,4 km/h S-SW 205 ° 5 min 19,4 °C 31,1 °C 5,4 km/h
04.08.2022 14:53 31,0 °C 50 % 5 cb 1011,3 hPa 0,0 mm 3,6 km/h SW 230 ° 5 min 19,3 °C 31,0 °C 3,6 km/h
04.08.2022 14:48 30,5 °C 51 % 5 cb 1011,3 hPa 0,0 mm 3,6 km/h SW 215 ° 5 min 19,2 °C 30,5 °C 3,6 km/h
04.08.2022 14:43 30,3 °C 51 % 5 cb 1011,3 hPa 0,0 mm 11,5 km/h S-SW 205 ° 5 min 19,0 °C 30,3 °C 11,5 km/h
04.08.2022 14:38 30,5 °C 51 % 5 cb 1011,3 hPa 0,0 mm 9,7 km/h NW 325 ° 5 min 19,2 °C 30,5 °C 9,7 km/h
04.08.2022 14:33 30,7 °C 51 % 5 cb 1011,3 hPa 0,0 mm 12,7 km/h S 190 ° 5 min 19,4 °C 30,7 °C 12,7 km/h
04.08.2022 14:28 30,6 °C 51 % 6 cb 1011,3 hPa 0,0 mm 11,5 km/h SO 125 ° 6 min 19,3 °C 30,6 °C 11,5 km/h
04.08.2022 14:23 31,1 °C 49 % 4 cb 1011,3 hPa 0,0 mm 16,9 km/h W 260 ° 4 min 19,1 °C 31,1 °C 16,9 km/h
04.08.2022 14:18 31,5 °C 49 % 6 cb 1011,3 hPa 0,0 mm 14,5 km/h SW 230 ° 6 min 19,5 °C 31,5 °C 14,5 km/h
04.08.2022 14:13 31,0 °C 49 % 4 cb 1011,3 hPa 0,0 mm 14,5 km/h S 185 ° 4 min 19,0 °C 31,0 °C 14,5 km/h
04.08.2022 14:08 30,8 °C 49 % 5 cb 1011,3 hPa 0,0 mm 8,5 km/h S-SW 210 ° 5 min 18,8 °C 30,8 °C 8,5 km/h
04.08.2022 14:03 31,0 °C 48 % 6 cb 1011,3 hPa 0,0 mm 10,3 km/h SO 145 ° 6 min 18,7 °C 31,0 °C 10,3 km/h
04.08.2022 13:58 31,0 °C 48 % 1 cb 1011,3 hPa 0,0 mm 12,7 km/h W-SW 250 ° 1 min 18,7 °C 31,0 °C 12,7 km/h
04.08.2022 13:53 30,8 °C 47 % 0 cb 1011,3 hPa 0,0 mm 25,4 km/h W-SW 240 ° 0 min 18,2 °C 30,8 °C 25,4 km/h
04.08.2022 13:48 31,2 °C 47 % 0 cb 1011,3 hPa 0,0 mm 13,3 km/h N-NW 330 ° 0 min 18,5 °C 31,2 °C 13,3 km/h
04.08.2022 13:43 31,4 °C 47 % 7 cb 1011,3 hPa 0,0 mm 18,2 km/h SW 230 ° 7 min 18,7 °C 31,4 °C 18,2 km/h
04.08.2022 13:33 31,6 °C 46 % 0 cb 1011,3 hPa 0,0 mm 15,1 km/h SW 220 ° 0 min 18,5 °C 31,6 °C 15,1 km/h
04.08.2022 13:28 32,6 °C 46 % 3 cb 1011,3 hPa 0,0 mm 9,1 km/h W-SW 250 ° 3 min 19,4 °C 32,6 °C 9,1 km/h
04.08.2022 13:23 32,9 °C 45 % 5 cb 1011,3 hPa 0,0 mm 9,1 km/h S-SW 205 ° 5 min 19,4 °C 32,9 °C 9,1 km/h
04.08.2022 13:18 33,5 °C 43 % 4 cb 1011,3 hPa 0,0 mm 15,7 km/h S 185 ° 4 min 19,2 °C 33,5 °C 15,7 km/h
04.08.2022 13:13 34,3 °C 43 % 6 cb 1011,3 hPa 0,0 mm 14,5 km/h SW 220 ° 6 min 19,9 °C 34,3 °C 14,5 km/h
04.08.2022 13:08 33,9 °C 44 % 5 cb 1011,3 hPa 0,0 mm 12,1 km/h S-SO 160 ° 5 min 19,9 °C 33,9 °C 12,1 km/h
04.08.2022 13:03 34,0 °C 42 % 5 cb 1011,3 hPa 0,0 mm 8,5 km/h W 270 ° 5 min 19,2 °C 34,0 °C 8,5 km/h
04.08.2022 12:58 33,6 °C 44 % 5 cb 1011,3 hPa 0,0 mm 15,1 km/h N-NW 330 ° 5 min 19,6 °C 33,6 °C 15,1 km/h
04.08.2022 12:53 33,3 °C 44 % 5 cb 1011,3 hPa 0,0 mm 13,9 km/h W-SW 240 ° 5 min 19,4 °C 33,3 °C 13,9 km/h
04.08.2022 12:48 33,5 °C 44 % 6 cb 1011,3 hPa 0,0 mm 13,9 km/h S-SO 150 ° 6 min 19,5 °C 33,5 °C 13,9 km/h
04.08.2022 12:43 33,4 °C 46 % 4 cb 1011,3 hPa 0,0 mm 9,1 km/h NW 310 ° 4 min 20,2 °C 33,4 °C 9,1 km/h
04.08.2022 12:38 33,0 °C 44 % 3 cb 1011,3 hPa 0,0 mm 12,1 km/h S-SW 200 ° 3 min 19,1 °C 33,0 °C 12,1 km/h
04.08.2022 12:33 32,9 °C 44 % 5 cb 1010,3 hPa 0,0 mm 8,5 km/h SW 230 ° 5 min 19,0 °C 32,9 °C 8,5 km/h
04.08.2022 12:28 32,7 °C 45 % 8 cb 1010,3 hPa 0,0 mm 4,8 km/h S-SO 165 ° 8 min 19,2 °C 32,7 °C 4,8 km/h
04.08.2022 12:23 32,5 °C 45 % 3 cb 1010,3 hPa 0,0 mm 9,7 km/h SW 220 ° 3 min 19,0 °C 32,5 °C 9,7 km/h
04.08.2022 12:18 32,6 °C 45 % 4 cb 1011,3 hPa 0,0 mm 13,3 km/h SW 220 ° 4 min 19,1 °C 32,6 °C 13,3 km/h
04.08.2022 12:13 32,7 °C 44 % 6 cb 1011,3 hPa 0,0 mm 10,3 km/h S-SW 210 ° 6 min 18,8 °C 32,7 °C 10,3 km/h
04.08.2022 12:08 32,9 °C 44 % 7 cb 1011,3 hPa 0,0 mm 12,7 km/h SW 230 ° 7 min 19,0 °C 32,9 °C 12,7 km/h
04.08.2022 12:03 33,8 °C 43 % 3 cb 1010,3 hPa 0,0 mm 13,3 km/h NO 45 ° 3 min 19,4 °C 33,8 °C 13,3 km/h
04.08.2022 11:58 34,1 °C 44 % 4 cb 1010,3 hPa 0,0 mm 5,4 km/h O 100 ° 4 min 20,1 °C 34,1 °C 5,4 km/h
04.08.2022 11:53 33,6 °C 45 % 6 cb 1010,3 hPa 0,0 mm 8,5 km/h SW 220 ° 6 min 20,0 °C 33,6 °C 8,5 km/h
04.08.2022 11:48 33,2 °C 45 % 5 cb 1011,3 hPa 0,0 mm 10,9 km/h SW 230 ° 5 min 19,6 °C 33,2 °C 10,9 km/h
04.08.2022 11:43 32,8 °C 47 % 5 cb 1011,3 hPa 0,0 mm 9,7 km/h N 5 ° 5 min 20,0 °C 32,8 °C 9,7 km/h
04.08.2022 11:38 32,7 °C 46 % 5 cb 1011,3 hPa 0,0 mm 4,2 km/h W 265 ° 5 min 19,5 °C 32,7 °C 4,2 km/h
04.08.2022 11:33 32,0 °C 47 % 4 cb 1010,3 hPa 0,0 mm 10,9 km/h SW 235 ° 4 min 19,2 °C 32,0 °C 10,9 km/h
04.08.2022 11:28 31,9 °C 47 % 6 cb 1010,3 hPa 0,0 mm 3,6 km/h W 260 ° 6 min 19,2 °C 31,9 °C 3,6 km/h
04.08.2022 11:23 31,4 °C 48 % 5 cb 1010,3 hPa 0,0 mm 4,8 km/h N-NO 30 ° 5 min 19,0 °C 31,4 °C 4,8 km/h
04.08.2022 11:18 31,3 °C 48 % 3 cb 1010,3 hPa 0,0 mm 3,6 km/h SW 220 ° 3 min 18,9 °C 31,3 °C 3,6 km/h
04.08.2022 11:13 31,4 °C 47 % 4 cb 1010,3 hPa 0,0 mm 4,2 km/h SO 145 ° 4 min 18,7 °C 31,4 °C 4,2 km/h
04.08.2022 11:08 31,9 °C 47 % 5 cb 1010,3 hPa 0,0 mm 3,6 km/h S-SW 205 ° 5 min 19,2 °C 31,9 °C 3,6 km/h
04.08.2022 11:03 32,1 °C 46 % 5 cb 1010,3 hPa 0,0 mm 6,1 km/h SW 215 ° 5 min 19,0 °C 32,1 °C 6,1 km/h
04.08.2022 10:58 32,0 °C 46 % 6 cb 1010,3 hPa 0,0 mm 6,1 km/h S-SW 200 ° 6 min 18,9 °C 32,0 °C 6,1 km/h
04.08.2022 10:53 31,5 °C 47 % 5 cb 1010,3 hPa 0,0 mm 6,7 km/h W 275 ° 5 min 18,8 °C 31,5 °C 6,7 km/h
04.08.2022 10:48 31,2 °C 47 % 5 cb 1010,3 hPa 0,0 mm 6,1 km/h S-SW 195 ° 5 min 18,5 °C 31,2 °C 6,1 km/h
04.08.2022 10:43 31,2 °C 47 % 4 cb 1010,3 hPa 0,0 mm 7,9 km/h S 185 ° 4 min 18,5 °C 31,2 °C 7,9 km/h
04.08.2022 10:38 31,4 °C 46 % 5 cb 1010,3 hPa 0,0 mm 4,8 km/h W-SW 255 ° 5 min 18,4 °C 31,4 °C 4,8 km/h
04.08.2022 10:33 31,6 °C 48 % 6 cb 1010,3 hPa 0,0 mm 6,7 km/h W-NW 285 ° 6 min 19,2 °C 31,6 °C 6,7 km/h
04.08.2022 10:28 31,3 °C 52 % 4 cb 1010,3 hPa 0,0 mm 4,8 km/h SW 235 ° 4 min 20,2 °C 31,3 °C 4,8 km/h
04.08.2022 10:23 30,9 °C 50 % 6 cb 1010,3 hPa 0,0 mm 4,8 km/h O-NO 70 ° 6 min 19,2 °C 30,9 °C 4,8 km/h
04.08.2022 10:18 30,8 °C 50 % 4 cb 1010,3 hPa 0,0 mm 7,9 km/h N-NO 15 ° 4 min 19,1 °C 30,8 °C 7,9 km/h
04.08.2022 10:13 30,9 °C 50 % 5 cb 1010,3 hPa 0,0 mm 6,1 km/h NO 55 ° 5 min 19,2 °C 30,9 °C 6,1 km/h
04.08.2022 10:08 31,0 °C 52 % 6 cb 1010,3 hPa 0,0 mm 3,0 km/h O-NO 70 ° 6 min 20,0 °C 31,0 °C 3,0 km/h
04.08.2022 10:03 30,1 °C 52 % 5 cb 1010,3 hPa 0,0 mm 5,4 km/h NO 55 ° 5 min 19,1 °C 30,1 °C 5,4 km/h
_ Min-Zeit 09:10 13:03 09:10 09:05 - 07:32 - - - 09:10 09:10 07:32
Minimum _ 17,2 °C 42 % 0 cb 1008,0 hPa - 0,0 km/h - - - 15,4 °C 17,2 °C 0,0 km/h
_ Max-Zeit 13:13 08:55 12:28 00:18 04:47 13:53 - - 12:28 18:38 13:13 13:53
Maximum _ 34,3 °C 90 % 8 cb 1014,5 hPa 3,2 mm 25,4 km/h
W-SW
- - 8 min 20,9 °C 34,3 °C 25,4 km/h
W-SW
Durchschnitt _ 25,3 °C 66 % 2 cb 1011,7 hPa #6,5 mm 4,2 km/h SW - #0 min. 17,9 °C 25,3 °C 4,2 km/h
H.Kloepper